sensor_id;sensor_type;location;lat;lon;timestamp;temperature;humidity
68746;SHT31;73143;45.456;11.064;2024-03-08T00:00:24;10.99;65.30
68746;SHT31;73143;45.456;11.064;2024-03-08T00:03:02;10.97;65.34
68746;SHT31;73143;45.456;11.064;2024-03-08T00:05:39;10.95;65.76
68746;SHT31;73143;45.456;11.064;2024-03-08T00:08:16;10.95;65.73
68746;SHT31;73143;45.456;11.064;2024-03-08T00:10:53;10.94;65.65
68746;SHT31;73143;45.456;11.064;2024-03-08T00:13:29;10.92;65.80
68746;SHT31;73143;45.456;11.064;2024-03-08T00:16:07;10.89;65.64
68746;SHT31;73143;45.456;11.064;2024-03-08T00:18:43;10.85;65.77
68746;SHT31;73143;45.456;11.064;2024-03-08T00:21:19;10.83;66.17
68746;SHT31;73143;45.456;11.064;2024-03-08T00:23:55;10.78;66.12
68746;SHT31;73143;45.456;11.064;2024-03-08T00:26:31;10.77;66.49
68746;SHT31;73143;45.456;11.064;2024-03-08T00:29:08;10.74;66.89
68746;SHT31;73143;45.456;11.064;2024-03-08T00:31:45;10.74;66.77
68746;SHT31;73143;45.456;11.064;2024-03-08T00:34:21;10.71;66.94
68746;SHT31;73143;45.456;11.064;2024-03-08T00:36:57;10.69;67.17
68746;SHT31;73143;45.456;11.064;2024-03-08T00:39:34;10.67;67.20
68746;SHT31;73143;45.456;11.064;2024-03-08T00:42:12;10.63;67.42
68746;SHT31;73143;45.456;11.064;2024-03-08T00:44:50;10.60;67.67
68746;SHT31;73143;45.456;11.064;2024-03-08T00:47:27;10.59;67.76
68746;SHT31;73143;45.456;11.064;2024-03-08T00:50:04;10.57;67.53
68746;SHT31;73143;45.456;11.064;2024-03-08T00:52:44;10.54;67.66
68746;SHT31;73143;45.456;11.064;2024-03-08T00:55:21;10.54;67.77
68746;SHT31;73143;45.456;11.064;2024-03-08T00:57:58;10.53;67.83
68746;SHT31;73143;45.456;11.064;2024-03-08T01:00:35;10.53;67.85
68746;SHT31;73143;45.456;11.064;2024-03-08T01:03:12;10.52;67.86
68746;SHT31;73143;45.456;11.064;2024-03-08T01:05:48;10.53;68.03
68746;SHT31;73143;45.456;11.064;2024-03-08T01:08:25;10.56;67.74
68746;SHT31;73143;45.456;11.064;2024-03-08T01:11:02;10.56;67.66
68746;SHT31;73143;45.456;11.064;2024-03-08T01:13:40;10.55;67.46
68746;SHT31;73143;45.456;11.064;2024-03-08T01:16:17;10.54;67.51
68746;SHT31;73143;45.456;11.064;2024-03-08T01:18:53;10.53;67.51
68746;SHT31;73143;45.456;11.064;2024-03-08T01:21:30;10.53;67.45
68746;SHT31;73143;45.456;11.064;2024-03-08T01:24:07;10.53;67.56
68746;SHT31;73143;45.456;11.064;2024-03-08T01:26:43;10.55;67.36
68746;SHT31;73143;45.456;11.064;2024-03-08T01:29:20;10.55;67.24
68746;SHT31;73143;45.456;11.064;2024-03-08T01:31:56;10.53;67.26
68746;SHT31;73143;45.456;11.064;2024-03-08T01:34:32;10.54;67.25
68746;SHT31;73143;45.456;11.064;2024-03-08T01:37:09;10.52;67.22
68746;SHT31;73143;45.456;11.064;2024-03-08T01:39:46;10.50;67.31
68746;SHT31;73143;45.456;11.064;2024-03-08T01:42:23;10.49;67.37
68746;SHT31;73143;45.456;11.064;2024-03-08T01:44:59;10.50;67.17
68746;SHT31;73143;45.456;11.064;2024-03-08T01:47:38;10.51;67.23
68746;SHT31;73143;45.456;11.064;2024-03-08T01:50:17;10.50;66.90
68746;SHT31;73143;45.456;11.064;2024-03-08T01:52:53;10.49;67.06
68746;SHT31;73143;45.456;11.064;2024-03-08T01:55:29;10.49;66.90
68746;SHT31;73143;45.456;11.064;2024-03-08T01:58:06;10.50;66.93
68746;SHT31;73143;45.456;11.064;2024-03-08T02:00:46;10.50;66.89
68746;SHT31;73143;45.456;11.064;2024-03-08T02:03:26;10.53;66.89
68746;SHT31;73143;45.456;11.064;2024-03-08T02:06:02;10.56;66.83
68746;SHT31;73143;45.456;11.064;2024-03-08T02:08:41;10.56;66.61
68746;SHT31;73143;45.456;11.064;2024-03-08T02:11:17;10.56;66.72
68746;SHT31;73143;45.456;11.064;2024-03-08T02:13:54;10.57;66.57
68746;SHT31;73143;45.456;11.064;2024-03-08T02:16:31;10.56;66.15
68746;SHT31;73143;45.456;11.064;2024-03-08T02:19:08;10.57;66.36
68746;SHT31;73143;45.456;11.064;2024-03-08T02:21:45;10.57;66.39
68746;SHT31;73143;45.456;11.064;2024-03-08T02:24:22;10.58;66.51
68746;SHT31;73143;45.456;11.064;2024-03-08T02:27:00;10.58;66.51
68746;SHT31;73143;45.456;11.064;2024-03-08T02:29:36;10.55;66.12
68746;SHT31;73143;45.456;11.064;2024-03-08T02:32:14;10.49;66.29
68746;SHT31;73143;45.456;11.064;2024-03-08T02:34:51;10.47;66.54
68746;SHT31;73143;45.456;11.064;2024-03-08T02:37:29;10.48;66.72
68746;SHT31;73143;45.456;11.064;2024-03-08T02:40:07;10.47;66.87
68746;SHT31;73143;45.456;11.064;2024-03-08T02:42:46;10.46;66.74
68746;SHT31;73143;45.456;11.064;2024-03-08T02:45:23;10.43;66.79
68746;SHT31;73143;45.456;11.064;2024-03-08T02:47:59;10.41;66.86
68746;SHT31;73143;45.456;11.064;2024-03-08T02:50:38;10.35;66.99
68746;SHT31;73143;45.456;11.064;2024-03-08T02:53:15;10.31;67.04
68746;SHT31;73143;45.456;11.064;2024-03-08T02:55:51;10.27;67.28
68746;SHT31;73143;45.456;11.064;2024-03-08T02:58:27;10.26;67.55
68746;SHT31;73143;45.456;11.064;2024-03-08T03:01:04;10.22;67.54
68746;SHT31;73143;45.456;11.064;2024-03-08T03:03:42;10.19;67.71
68746;SHT31;73143;45.456;11.064;2024-03-08T03:06:19;10.15;67.86
68746;SHT31;73143;45.456;11.064;2024-03-08T03:08:55;10.12;67.88
68746;SHT31;73143;45.456;11.064;2024-03-08T03:11:31;10.09;67.94
68746;SHT31;73143;45.456;11.064;2024-03-08T03:14:08;10.05;67.85
68746;SHT31;73143;45.456;11.064;2024-03-08T03:16:45;10.00;67.84
68746;SHT31;73143;45.456;11.064;2024-03-08T03:19:21;9.97;67.85
68746;SHT31;73143;45.456;11.064;2024-03-08T03:21:58;9.92;67.88
68746;SHT31;73143;45.456;11.064;2024-03-08T03:24:35;9.87;67.69
68746;SHT31;73143;45.456;11.064;2024-03-08T03:27:12;9.81;67.90
68746;SHT31;73143;45.456;11.064;2024-03-08T03:29:48;9.79;68.17
68746;SHT31;73143;45.456;11.064;2024-03-08T03:32:25;9.77;68.26
68746;SHT31;73143;45.456;11.064;2024-03-08T03:35:02;9.73;68.34
68746;SHT31;73143;45.456;11.064;2024-03-08T03:37:40;9.69;68.50
68746;SHT31;73143;45.456;11.064;2024-03-08T03:40:31;9.68;68.55
68746;SHT31;73143;45.456;11.064;2024-03-08T03:43:08;9.66;68.52
68746;SHT31;73143;45.456;11.064;2024-03-08T03:45:45;9.65;68.26
68746;SHT31;73143;45.456;11.064;2024-03-08T03:48:21;9.60;68.30
68746;SHT31;73143;45.456;11.064;2024-03-08T03:50:58;9.59;68.31
68746;SHT31;73143;45.456;11.064;2024-03-08T03:53:35;9.59;68.06
68746;SHT31;73143;45.456;11.064;2024-03-08T03:56:11;9.58;67.88
68746;SHT31;73143;45.456;11.064;2024-03-08T03:58:47;9.57;67.56
68746;SHT31;73143;45.456;11.064;2024-03-08T04:01:24;9.57;67.57
68746;SHT31;73143;45.456;11.064;2024-03-08T04:04:05;9.57;67.40
68746;SHT31;73143;45.456;11.064;2024-03-08T04:06:42;9.56;67.50
68746;SHT31;73143;45.456;11.064;2024-03-08T04:09:19;9.55;67.48
68746;SHT31;73143;45.456;11.064;2024-03-08T04:11:56;9.54;67.53
68746;SHT31;73143;45.456;11.064;2024-03-08T04:14:32;9.52;67.48
68746;SHT31;73143;45.456;11.064;2024-03-08T04:17:10;9.50;67.48
68746;SHT31;73143;45.456;11.064;2024-03-08T04:19:47;9.50;67.44
68746;SHT31;73143;45.456;11.064;2024-03-08T04:22:23;9.50;67.44
68746;SHT31;73143;45.456;11.064;2024-03-08T04:24:59;9.51;67.45
68746;SHT31;73143;45.456;11.064;2024-03-08T04:27:36;9.52;67.49
68746;SHT31;73143;45.456;11.064;2024-03-08T04:30:12;9.53;67.52
68746;SHT31;73143;45.456;11.064;2024-03-08T04:32:51;9.51;67.64
68746;SHT31;73143;45.456;11.064;2024-03-08T04:35:26;9.51;67.48
68746;SHT31;73143;45.456;11.064;2024-03-08T04:38:03;9.51;67.50
68746;SHT31;73143;45.456;11.064;2024-03-08T04:40:39;9.50;67.31
68746;SHT31;73143;45.456;11.064;2024-03-08T04:43:15;9.50;67.45
68746;SHT31;73143;45.456;11.064;2024-03-08T04:45:54;9.51;67.38
68746;SHT31;73143;45.456;11.064;2024-03-08T04:48:32;9.50;67.39
68746;SHT31;73143;45.456;11.064;2024-03-08T04:51:10;9.47;67.54
68746;SHT31;73143;45.456;11.064;2024-03-08T04:53:48;9.44;67.63
68746;SHT31;73143;45.456;11.064;2024-03-08T04:56:25;9.42;67.55
68746;SHT31;73143;45.456;11.064;2024-03-08T04:59:02;9.40;67.50
68746;SHT31;73143;45.456;11.064;2024-03-08T05:01:40;9.39;67.68
68746;SHT31;73143;45.456;11.064;2024-03-08T05:04:16;9.39;67.67
68746;SHT31;73143;45.456;11.064;2024-03-08T05:06:53;9.38;67.29
68746;SHT31;73143;45.456;11.064;2024-03-08T05:09:31;9.40;67.47
68746;SHT31;73143;45.456;11.064;2024-03-08T05:12:09;9.41;67.44
68746;SHT31;73143;45.456;11.064;2024-03-08T05:14:46;9.40;67.20
68746;SHT31;73143;45.456;11.064;2024-03-08T05:17:22;9.40;66.89
68746;SHT31;73143;45.456;11.064;2024-03-08T05:19:59;9.40;66.97
68746;SHT31;73143;45.456;11.064;2024-03-08T05:22:37;9.40;66.99
68746;SHT31;73143;45.456;11.064;2024-03-08T05:25:13;9.40;66.98
68746;SHT31;73143;45.456;11.064;2024-03-08T05:27:51;9.42;66.86
68746;SHT31;73143;45.456;11.064;2024-03-08T05:30:29;9.42;66.55
68746;SHT31;73143;45.456;11.064;2024-03-08T05:33:06;9.42;66.45
68746;SHT31;73143;45.456;11.064;2024-03-08T05:35:43;9.41;66.44
68746;SHT31;73143;45.456;11.064;2024-03-08T05:38:19;9.41;66.44
68746;SHT31;73143;45.456;11.064;2024-03-08T05:40:56;9.42;66.50
68746;SHT31;73143;45.456;11.064;2024-03-08T05:43:33;9.43;66.59
68746;SHT31;73143;45.456;11.064;2024-03-08T05:46:09;9.43;66.72
68746;SHT31;73143;45.456;11.064;2024-03-08T05:48:49;9.45;66.63
68746;SHT31;73143;45.456;11.064;2024-03-08T05:51:26;9.45;66.59
68746;SHT31;73143;45.456;11.064;2024-03-08T05:54:04;9.42;66.63
68746;SHT31;73143;45.456;11.064;2024-03-08T05:56:47;9.43;66.78
68746;SHT31;73143;45.456;11.064;2024-03-08T05:59:24;9.41;66.80
68746;SHT31;73143;45.456;11.064;2024-03-08T06:02:00;9.40;66.82
68746;SHT31;73143;45.456;11.064;2024-03-08T06:04:36;9.40;66.94
68746;SHT31;73143;45.456;11.064;2024-03-08T06:07:13;9.40;66.95
68746;SHT31;73143;45.456;11.064;2024-03-08T06:09:49;9.40;66.91
68746;SHT31;73143;45.456;11.064;2024-03-08T06:12:26;9.40;66.92
68746;SHT31;73143;45.456;11.064;2024-03-08T06:15:07;9.40;66.95
68746;SHT31;73143;45.456;11.064;2024-03-08T06:17:44;9.39;66.96
68746;SHT31;73143;45.456;11.064;2024-03-08T06:20:22;9.39;67.07
68746;SHT31;73143;45.456;11.064;2024-03-08T06:22:58;9.39;67.00
68746;SHT31;73143;45.456;11.064;2024-03-08T06:25:35;9.41;67.19
68746;SHT31;73143;45.456;11.064;2024-03-08T06:28:11;9.40;67.08
68746;SHT31;73143;45.456;11.064;2024-03-08T06:30:48;9.36;67.09
68746;SHT31;73143;45.456;11.064;2024-03-08T06:33:24;9.36;67.18
68746;SHT31;73143;45.456;11.064;2024-03-08T06:36:01;9.36;67.19
68746;SHT31;73143;45.456;11.064;2024-03-08T06:38:41;9.34;67.09
68746;SHT31;73143;45.456;11.064;2024-03-08T06:41:17;9.33;67.05
68746;SHT31;73143;45.456;11.064;2024-03-08T06:43:55;9.33;67.18
68746;SHT31;73143;45.456;11.064;2024-03-08T06:46:31;9.34;67.23
68746;SHT31;73143;45.456;11.064;2024-03-08T06:49:07;9.34;67.19
68746;SHT31;73143;45.456;11.064;2024-03-08T06:51:44;9.36;67.34
68746;SHT31;73143;45.456;11.064;2024-03-08T06:54:21;9.36;67.37
68746;SHT31;73143;45.456;11.064;2024-03-08T06:56:58;9.36;67.31
68746;SHT31;73143;45.456;11.064;2024-03-08T06:59:35;9.36;67.33
68746;SHT31;73143;45.456;11.064;2024-03-08T07:02:12;9.39;67.35
68746;SHT31;73143;45.456;11.064;2024-03-08T07:04:48;9.38;67.21
68746;SHT31;73143;45.456;11.064;2024-03-08T07:07:24;9.40;67.32
68746;SHT31;73143;45.456;11.064;2024-03-08T07:10:00;9.39;67.28
68746;SHT31;73143;45.456;11.064;2024-03-08T07:12:43;9.40;67.38
68746;SHT31;73143;45.456;11.064;2024-03-08T07:15:20;9.40;67.42
68746;SHT31;73143;45.456;11.064;2024-03-08T07:17:57;9.43;67.44
68746;SHT31;73143;45.456;11.064;2024-03-08T07:20:34;9.46;67.21
68746;SHT31;73143;45.456;11.064;2024-03-08T07:23:10;9.49;67.03
68746;SHT31;73143;45.456;11.064;2024-03-08T07:26:08;9.55;67.04
68746;SHT31;73143;45.456;11.064;2024-03-08T07:28:47;9.59;66.81
68746;SHT31;73143;45.456;11.064;2024-03-08T07:31:24;9.62;66.86
68746;SHT31;73143;45.456;11.064;2024-03-08T07:34:13;9.65;67.03
68746;SHT31;73143;45.456;11.064;2024-03-08T07:36:49;9.66;66.85
68746;SHT31;73143;45.456;11.064;2024-03-08T07:39:25;9.65;66.91
68746;SHT31;73143;45.456;11.064;2024-03-08T07:42:01;9.67;66.45
68746;SHT31;73143;45.456;11.064;2024-03-08T07:44:39;9.67;66.51
68746;SHT31;73143;45.456;11.064;2024-03-08T07:47:17;9.71;66.35
68746;SHT31;73143;45.456;11.064;2024-03-08T07:49:53;9.73;65.97
68746;SHT31;73143;45.456;11.064;2024-03-08T07:52:32;9.76;65.97
68746;SHT31;73143;45.456;11.064;2024-03-08T07:55:10;9.77;66.03
68746;SHT31;73143;45.456;11.064;2024-03-08T07:57:48;9.81;66.05
68746;SHT31;73143;45.456;11.064;2024-03-08T08:00:25;9.82;66.04
68746;SHT31;73143;45.456;11.064;2024-03-08T08:03:03;9.81;65.98
68746;SHT31;73143;45.456;11.064;2024-03-08T08:05:39;9.82;66.07
68746;SHT31;73143;45.456;11.064;2024-03-08T08:08:17;9.81;66.03
68746;SHT31;73143;45.456;11.064;2024-03-08T08:10:55;9.79;66.06
68746;SHT31;73143;45.456;11.064;2024-03-08T08:13:31;9.75;66.07
68746;SHT31;73143;45.456;11.064;2024-03-08T08:16:07;9.70;66.09
68746;SHT31;73143;45.456;11.064;2024-03-08T08:18:44;9.67;66.19
68746;SHT31;73143;45.456;11.064;2024-03-08T08:21:21;9.64;66.35
68746;SHT31;73143;45.456;11.064;2024-03-08T08:23:57;9.63;66.36
68746;SHT31;73143;45.456;11.064;2024-03-08T08:26:33;9.61;66.31
68746;SHT31;73143;45.456;11.064;2024-03-08T08:29:08;9.61;66.45
68746;SHT31;73143;45.456;11.064;2024-03-08T08:31:44;9.61;66.78
68746;SHT31;73143;45.456;11.064;2024-03-08T11:46:09;10.80;63.68
68746;SHT31;73143;45.456;11.064;2024-03-08T11:49:00;10.88;63.38
68746;SHT31;73143;45.456;11.064;2024-03-08T11:51:50;10.97;62.94
68746;SHT31;73143;45.456;11.064;2024-03-08T11:54:33;10.95;62.84
68746;SHT31;73143;45.456;11.064;2024-03-08T11:57:25;11.01;62.88
68746;SHT31;73143;45.456;11.064;2024-03-08T12:00:18;11.22;62.89
68746;SHT31;73143;45.456;11.064;2024-03-08T12:03:05;11.40;62.18
68746;SHT31;73143;45.456;11.064;2024-03-08T12:06:04;11.51;61.93
68746;SHT31;73143;45.456;11.064;2024-03-08T12:08:49;11.62;61.57
68746;SHT31;73143;45.456;11.064;2024-03-08T12:11:46;11.70;61.33
68746;SHT31;73143;45.456;11.064;2024-03-08T12:14:29;11.68;60.80
68746;SHT31;73143;45.456;11.064;2024-03-08T12:17:12;11.61;61.12
68746;SHT31;73143;45.456;11.064;2024-03-08T12:19:55;11.60;61.17
68746;SHT31;73143;45.456;11.064;2024-03-08T12:22:53;11.72;60.78
68746;SHT31;73143;45.456;11.064;2024-03-08T12:25:31;11.74;60.64
68746;SHT31;73143;45.456;11.064;2024-03-08T12:28:09;11.79;60.09
68746;SHT31;73143;45.456;11.064;2024-03-08T12:30:58;11.86;60.42
68746;SHT31;73143;45.456;11.064;2024-03-08T12:33:51;11.99;60.27
68746;SHT31;73143;45.456;11.064;2024-03-08T12:36:32;11.98;59.93
68746;SHT31;73143;45.456;11.064;2024-03-08T12:39:17;11.92;60.11
68746;SHT31;73143;45.456;11.064;2024-03-08T12:42:15;11.81;60.13
68746;SHT31;73143;45.456;11.064;2024-03-08T12:44:55;11.73;60.34
68746;SHT31;73143;45.456;11.064;2024-03-08T12:47:32;11.68;60.80
68746;SHT31;73143;45.456;11.064;2024-03-08T12:50:22;11.69;61.10
68746;SHT31;73143;45.456;11.064;2024-03-08T12:53:05;11.59;59.86
68746;SHT31;73143;45.456;11.064;2024-03-08T12:55:43;11.47;60.76
68746;SHT31;73143;45.456;11.064;2024-03-08T12:58:24;11.48;61.13
68746;SHT31;73143;45.456;11.064;2024-03-08T13:01:01;11.49;61.20
68746;SHT31;73143;45.456;11.064;2024-03-08T13:03:42;11.48;61.23
68746;SHT31;73143;45.456;11.064;2024-03-08T13:06:27;11.48;61.05
68746;SHT31;73143;45.456;11.064;2024-03-08T13:09:16;11.46;60.88
68746;SHT31;73143;45.456;11.064;2024-03-08T13:11:58;11.43;61.22
68746;SHT31;73143;45.456;11.064;2024-03-08T13:14:45;11.38;60.81
68746;SHT31;73143;45.456;11.064;2024-03-08T13:17:34;11.37;61.06
68746;SHT31;73143;45.456;11.064;2024-03-08T13:20:13;11.40;61.26
68746;SHT31;73143;45.456;11.064;2024-03-08T13:23:02;11.41;61.11
68746;SHT31;73143;45.456;11.064;2024-03-08T13:25:47;11.44;61.25
68746;SHT31;73143;45.456;11.064;2024-03-08T13:28:28;11.45;60.95
68746;SHT31;73143;45.456;11.064;2024-03-08T13:31:17;11.47;61.38
68746;SHT31;73143;45.456;11.064;2024-03-08T13:33:56;11.49;60.95
68746;SHT31;73143;45.456;11.064;2024-03-08T13:36:43;11.43;61.02
68746;SHT31;73143;45.456;11.064;2024-03-08T13:39:24;11.38;60.95
68746;SHT31;73143;45.456;11.064;2024-03-08T13:42:09;11.36;61.01
68746;SHT31;73143;45.456;11.064;2024-03-08T13:44:52;11.36;61.32
68746;SHT31;73143;45.456;11.064;2024-03-08T13:47:39;11.32;61.30
68746;SHT31;73143;45.456;11.064;2024-03-08T13:50:21;11.23;61.46
68746;SHT31;73143;45.456;11.064;2024-03-08T13:53:02;11.22;61.42
68746;SHT31;73143;45.456;11.064;2024-03-08T13:55:43;11.17;61.27
68746;SHT31;73143;45.456;11.064;2024-03-08T13:58:19;11.13;61.63
68746;SHT31;73143;45.456;11.064;2024-03-08T14:01:06;11.13;61.46
68746;SHT31;73143;45.456;11.064;2024-03-08T14:03:48;11.12;61.55
68746;SHT31;73143;45.456;11.064;2024-03-08T14:06:24;11.10;61.64
68746;SHT31;73143;45.456;11.064;2024-03-08T14:09:08;11.10;61.58
68746;SHT31;73143;45.456;11.064;2024-03-08T14:11:53;11.04;61.86
68746;SHT31;73143;45.456;11.064;2024-03-08T14:14:40;11.05;61.94
68746;SHT31;73143;45.456;11.064;2024-03-08T14:17:23;11.02;61.95
68746;SHT31;73143;45.456;11.064;2024-03-08T14:20:08;10.95;61.97
68746;SHT31;73143;45.456;11.064;2024-03-08T14:22:53;10.83;61.92
68746;SHT31;73143;45.456;11.064;2024-03-08T14:25:35;10.78;62.30
68746;SHT31;73143;45.456;11.064;2024-03-08T14:28:12;10.78;62.42
68746;SHT31;73143;45.456;11.064;2024-03-08T14:30:57;10.77;62.47
68746;SHT31;73143;45.456;11.064;2024-03-08T14:33:35;10.81;62.64
68746;SHT31;73143;45.456;11.064;2024-03-08T14:36:11;10.85;62.39
68746;SHT31;73143;45.456;11.064;2024-03-08T14:38:54;10.87;62.23
68746;SHT31;73143;45.456;11.064;2024-03-08T14:41:35;10.84;62.26
68746;SHT31;73143;45.456;11.064;2024-03-08T14:44:16;10.84;62.32
68746;SHT31;73143;45.456;11.064;2024-03-08T14:46:54;10.85;62.22
68746;SHT31;73143;45.456;11.064;2024-03-08T14:49:47;10.79;62.35
68746;SHT31;73143;45.456;11.064;2024-03-08T14:52:33;10.84;62.72
68746;SHT31;73143;45.456;11.064;2024-03-08T14:55:15;10.95;62.84
68746;SHT31;73143;45.456;11.064;2024-03-08T14:58:02;10.98;61.99
68746;SHT31;73143;45.456;11.064;2024-03-08T15:00:48;10.93;61.88
68746;SHT31;73143;45.456;11.064;2024-03-08T15:03:25;10.92;62.05
68746;SHT31;73143;45.456;11.064;2024-03-08T15:06:07;10.94;62.12
68746;SHT31;73143;45.456;11.064;2024-03-08T15:08:56;10.97;62.37
68746;SHT31;73143;45.456;11.064;2024-03-08T15:11:55;11.00;62.17
68746;SHT31;73143;45.456;11.064;2024-03-08T15:14:32;10.98;62.18
68746;SHT31;73143;45.456;11.064;2024-03-08T15:17:12;10.94;62.19
68746;SHT31;73143;45.456;11.064;2024-03-08T15:19:50;10.88;62.21
68746;SHT31;73143;45.456;11.064;2024-03-08T15:22:33;10.83;62.41
68746;SHT31;73143;45.456;11.064;2024-03-08T15:25:14;10.76;62.33
68746;SHT31;73143;45.456;11.064;2024-03-08T15:27:58;10.74;62.81
68746;SHT31;73143;45.456;11.064;2024-03-08T15:30:48;10.69;62.82
68746;SHT31;73143;45.456;11.064;2024-03-08T15:33:35;10.65;63.03
68746;SHT31;73143;45.456;11.064;2024-03-08T15:36:30;10.67;63.33
68746;SHT31;73143;45.456;11.064;2024-03-08T15:39:15;10.69;63.48
68746;SHT31;73143;45.456;11.064;2024-03-08T15:41:53;10.70;63.51
68746;SHT31;73143;45.456;11.064;2024-03-08T15:44:36;10.65;63.52
68746;SHT31;73143;45.456;11.064;2024-03-08T15:47:15;10.64;63.45
68746;SHT31;73143;45.456;11.064;2024-03-08T15:50:00;10.54;63.40
68746;SHT31;73143;45.456;11.064;2024-03-08T15:52:45;10.46;63.66
68746;SHT31;73143;45.456;11.064;2024-03-08T15:55:26;10.40;63.80
68746;SHT31;73143;45.456;11.064;2024-03-08T15:58:04;10.36;63.82
68746;SHT31;73143;45.456;11.064;2024-03-08T16:00:48;10.34;64.08
68746;SHT31;73143;45.456;11.064;2024-03-08T16:03:34;10.35;64.06
68746;SHT31;73143;45.456;11.064;2024-03-08T16:06:23;10.37;64.14
68746;SHT31;73143;45.456;11.064;2024-03-08T16:09:12;10.38;64.01
68746;SHT31;73143;45.456;11.064;2024-03-08T16:11:55;10.38;64.09
68746;SHT31;73143;45.456;11.064;2024-03-08T16:14:38;10.37;64.07
68746;SHT31;73143;45.456;11.064;2024-03-08T16:17:20;10.33;64.08
68746;SHT31;73143;45.456;11.064;2024-03-08T16:19:57;10.33;64.18
68746;SHT31;73143;45.456;11.064;2024-03-08T16:22:45;10.29;64.19
68746;SHT31;73143;45.456;11.064;2024-03-08T16:25:24;10.27;64.41
68746;SHT31;73143;45.456;11.064;2024-03-08T16:28:08;10.26;64.46
68746;SHT31;73143;45.456;11.064;2024-03-08T16:30:54;10.27;64.43
68746;SHT31;73143;45.456;11.064;2024-03-08T16:33:41;10.26;64.52
68746;SHT31;73143;45.456;11.064;2024-03-08T16:36:16;10.27;64.72
68746;SHT31;73143;45.456;11.064;2024-03-08T16:39:02;10.25;64.70
68746;SHT31;73143;45.456;11.064;2024-03-08T16:41:48;10.21;64.66
68746;SHT31;73143;45.456;11.064;2024-03-08T16:44:26;10.17;64.76
68746;SHT31;73143;45.456;11.064;2024-03-08T16:47:04;10.16;64.91
68746;SHT31;73143;45.456;11.064;2024-03-08T16:49:48;10.11;65.06
68746;SHT31;73143;45.456;11.064;2024-03-08T16:52:24;10.10;65.18
68746;SHT31;73143;45.456;11.064;2024-03-08T16:55:03;10.08;65.23
68746;SHT31;73143;45.456;11.064;2024-03-08T16:57:45;10.08;65.34
68746;SHT31;73143;45.456;11.064;2024-03-08T17:00:24;10.10;65.28
68746;SHT31;73143;45.456;11.064;2024-03-08T17:03:04;10.08;65.27
68746;SHT31;73143;45.456;11.064;2024-03-08T17:05:49;10.07;65.32
68746;SHT31;73143;45.456;11.064;2024-03-08T17:08:30;10.04;65.32
68746;SHT31;73143;45.456;11.064;2024-03-08T17:11:12;10.00;65.27
68746;SHT31;73143;45.456;11.064;2024-03-08T17:13:55;9.96;65.27
68746;SHT31;73143;45.456;11.064;2024-03-08T17:16:35;9.90;65.51
68746;SHT31;73143;45.456;11.064;2024-03-08T17:19:19;9.86;65.53
68746;SHT31;73143;45.456;11.064;2024-03-08T17:22:03;9.85;65.57
68746;SHT31;73143;45.456;11.064;2024-03-08T17:24:40;9.83;65.58
68746;SHT31;73143;45.456;11.064;2024-03-08T17:27:17;9.82;65.70
68746;SHT31;73143;45.456;11.064;2024-03-08T17:30:07;9.83;65.64
68746;SHT31;73143;45.456;11.064;2024-03-08T17:33:02;9.81;65.67
68746;SHT31;73143;45.456;11.064;2024-03-08T17:35:46;9.83;65.75
68746;SHT31;73143;45.456;11.064;2024-03-08T17:38:30;9.84;65.77
68746;SHT31;73143;45.456;11.064;2024-03-08T17:41:20;9.83;65.75
68746;SHT31;73143;45.456;11.064;2024-03-08T17:43:57;9.83;65.72
68746;SHT31;73143;45.456;11.064;2024-03-08T17:46:35;9.84;65.79
68746;SHT31;73143;45.456;11.064;2024-03-08T17:49:17;9.85;65.75
68746;SHT31;73143;45.456;11.064;2024-03-08T17:51:57;9.87;65.75
68746;SHT31;73143;45.456;11.064;2024-03-08T17:54:36;9.87;65.71
68746;SHT31;73143;45.456;11.064;2024-03-08T17:57:13;9.88;65.77
68746;SHT31;73143;45.456;11.064;2024-03-08T17:59:50;9.89;65.85
68746;SHT31;73143;45.456;11.064;2024-03-08T18:02:33;9.89;65.72
68746;SHT31;73143;45.456;11.064;2024-03-08T18:05:10;9.89;65.80
68746;SHT31;73143;45.456;11.064;2024-03-08T18:07:47;9.90;65.88
68746;SHT31;73143;45.456;11.064;2024-03-08T18:10:30;9.92;65.90
68746;SHT31;73143;45.456;11.064;2024-03-08T18:13:10;9.90;65.88
68746;SHT31;73143;45.456;11.064;2024-03-08T18:16:00;9.91;65.98
68746;SHT31;73143;45.456;11.064;2024-03-08T18:18:49;9.90;65.91
68746;SHT31;73143;45.456;11.064;2024-03-08T18:21:29;9.89;66.03
68746;SHT31;73143;45.456;11.064;2024-03-08T18:24:14;9.86;66.05
68746;SHT31;73143;45.456;11.064;2024-03-08T18:26:52;9.86;66.15
68746;SHT31;73143;45.456;11.064;2024-03-08T18:29:32;9.85;66.21
68746;SHT31;73143;45.456;11.064;2024-03-08T18:32:31;9.88;66.27
68746;SHT31;73143;45.456;11.064;2024-03-08T18:35:16;9.89;66.23
68746;SHT31;73143;45.456;11.064;2024-03-08T18:37:55;9.86;66.30
68746;SHT31;73143;45.456;11.064;2024-03-08T18:40:37;9.86;66.41
68746;SHT31;73143;45.456;11.064;2024-03-08T18:43:15;9.87;66.48
68746;SHT31;73143;45.456;11.064;2024-03-08T18:45:56;9.88;66.60
68746;SHT31;73143;45.456;11.064;2024-03-08T18:48:34;9.88;66.62
68746;SHT31;73143;45.456;11.064;2024-03-08T18:51:23;9.87;66.61
68746;SHT31;73143;45.456;11.064;2024-03-08T18:54:03;9.89;66.66
68746;SHT31;73143;45.456;11.064;2024-03-08T18:56:46;9.91;66.65
68746;SHT31;73143;45.456;11.064;2024-03-08T18:59:35;9.93;66.61
68746;SHT31;73143;45.456;11.064;2024-03-08T19:02:21;9.93;66.68
68746;SHT31;73143;45.456;11.064;2024-03-08T19:04:57;9.94;66.67
68746;SHT31;73143;45.456;11.064;2024-03-08T19:07:40;9.95;66.69
68746;SHT31;73143;45.456;11.064;2024-03-08T19:10:25;9.97;66.73
68746;SHT31;73143;45.456;11.064;2024-03-08T19:13:13;9.98;66.80
68746;SHT31;73143;45.456;11.064;2024-03-08T19:15:53;9.98;66.88
68746;SHT31;73143;45.456;11.064;2024-03-08T19:18:31;9.99;66.95
68746;SHT31;73143;45.456;11.064;2024-03-08T19:21:07;10.00;66.96
68746;SHT31;73143;45.456;11.064;2024-03-08T19:23:46;10.03;66.98
68746;SHT31;73143;45.456;11.064;2024-03-08T19:26:55;10.07;67.00
68746;SHT31;73143;45.456;11.064;2024-03-08T19:29:36;10.10;67.01
68746;SHT31;73143;45.456;11.064;2024-03-08T19:32:21;10.10;67.01
68746;SHT31;73143;45.456;11.064;2024-03-08T19:35:07;10.10;67.00
68746;SHT31;73143;45.456;11.064;2024-03-08T19:37:50;10.12;66.97
68746;SHT31;73143;45.456;11.064;2024-03-08T19:40:29;10.14;67.03
68746;SHT31;73143;45.456;11.064;2024-03-08T19:43:11;10.16;67.07
68746;SHT31;73143;45.456;11.064;2024-03-08T19:45:47;10.18;67.04
68746;SHT31;73143;45.456;11.064;2024-03-08T19:48:24;10.21;66.74
68746;SHT31;73143;45.456;11.064;2024-03-08T19:51:01;10.24;66.85
68746;SHT31;73143;45.456;11.064;2024-03-08T19:53:45;10.26;66.75